sensor_id;sensor_type;location;lat;lon;timestamp;P1;durP1;ratioP1;P2;durP2;ratioP2
3941;SDS011;1985;48.592;8.850;2023-05-23T00:00:53;15.98;;;8.10;;
3941;SDS011;1985;48.592;8.850;2023-05-23T00:03:18;17.60;;;8.43;;
3941;SDS011;1985;48.592;8.850;2023-05-23T00:05:46;16.23;;;7.00;;
3941;SDS011;1985;48.592;8.850;2023-05-23T00:08:13;16.75;;;7.63;;
3941;SDS011;1985;48.592;8.850;2023-05-23T00:10:38;17.02;;;7.60;;
3941;SDS011;1985;48.592;8.850;2023-05-23T00:13:04;15.20;;;7.70;;
3941;SDS011;1985;48.592;8.850;2023-05-23T00:15:33;18.67;;;7.93;;
3941;SDS011;1985;48.592;8.850;2023-05-23T00:18:17;15.53;;;7.10;;
3941;SDS011;1985;48.592;8.850;2023-05-23T00:20:43;17.50;;;8.02;;
3941;SDS011;1985;48.592;8.850;2023-05-23T00:23:10;17.20;;;8.30;;
3941;SDS011;1985;48.592;8.850;2023-05-23T00:25:43;19.08;;;8.02;;
3941;SDS011;1985;48.592;8.850;2023-05-23T00:28:12;17.52;;;8.32;;
3941;SDS011;1985;48.592;8.850;2023-05-23T00:30:38;18.50;;;8.15;;
3941;SDS011;1985;48.592;8.850;2023-05-23T00:33:03;18.03;;;8.43;;
3941;SDS011;1985;48.592;8.850;2023-05-23T00:35:30;17.90;;;8.93;;
3941;SDS011;1985;48.592;8.850;2023-05-23T00:37:56;20.95;;;9.82;;
3941;SDS011;1985;48.592;8.850;2023-05-23T00:40:21;19.25;;;9.30;;
3941;SDS011;1985;48.592;8.850;2023-05-23T00:42:47;21.50;;;10.70;;
3941;SDS011;1985;48.592;8.850;2023-05-23T00:45:13;23.60;;;10.60;;
3941;SDS011;1985;48.592;8.850;2023-05-23T00:47:41;21.60;;;10.30;;
3941;SDS011;1985;48.592;8.850;2023-05-23T00:50:08;28.15;;;13.52;;
3941;SDS011;1985;48.592;8.850;2023-05-23T00:52:35;25.08;;;12.88;;
3941;SDS011;1985;48.592;8.850;2023-05-23T00:55:01;24.20;;;12.25;;
3941;SDS011;1985;48.592;8.850;2023-05-23T00:57:28;26.63;;;12.77;;
3941;SDS011;1985;48.592;8.850;2023-05-23T00:59:53;23.88;;;12.18;;
3941;SDS011;1985;48.592;8.850;2023-05-23T01:02:19;19.77;;;9.93;;
3941;SDS011;1985;48.592;8.850;2023-05-23T01:04:46;23.75;;;11.10;;
3941;SDS011;1985;48.592;8.850;2023-05-23T01:07:18;21.73;;;11.43;;
3941;SDS011;1985;48.592;8.850;2023-05-23T01:09:46;24.80;;;12.80;;
3941;SDS011;1985;48.592;8.850;2023-05-23T01:12:16;25.45;;;12.32;;
3941;SDS011;1985;48.592;8.850;2023-05-23T01:17:43;25.85;;;13.27;;
3941;SDS011;1985;48.592;8.850;2023-05-23T01:20:28;27.33;;;13.20;;
3941;SDS011;1985;48.592;8.850;2023-05-23T01:28:22;26.73;;;13.20;;
3941;SDS011;1985;48.592;8.850;2023-05-23T01:30:56;23.98;;;12.13;;
3941;SDS011;1985;48.592;8.850;2023-05-23T01:33:22;23.27;;;10.77;;
3941;SDS011;1985;48.592;8.850;2023-05-23T01:35:50;23.75;;;12.90;;
3941;SDS011;1985;48.592;8.850;2023-05-23T01:38:16;25.23;;;11.30;;
3941;SDS011;1985;48.592;8.850;2023-05-23T01:40:41;23.23;;;11.05;;
3941;SDS011;1985;48.592;8.850;2023-05-23T01:43:07;21.13;;;11.30;;
3941;SDS011;1985;48.592;8.850;2023-05-23T01:45:33;24.83;;;11.32;;
3941;SDS011;1985;48.592;8.850;2023-05-23T01:47:59;23.60;;;11.50;;
3941;SDS011;1985;48.592;8.850;2023-05-23T01:50:26;23.67;;;11.50;;
3941;SDS011;1985;48.592;8.850;2023-05-23T01:52:52;25.30;;;11.00;;
3941;SDS011;1985;48.592;8.850;2023-05-23T01:55:20;24.58;;;11.15;;
3941;SDS011;1985;48.592;8.850;2023-05-23T01:57:50;24.70;;;10.40;;
3941;SDS011;1985;48.592;8.850;2023-05-23T02:00:17;21.60;;;10.60;;
3941;SDS011;1985;48.592;8.850;2023-05-23T02:02:43;26.67;;;11.00;;
3941;SDS011;1985;48.592;8.850;2023-05-23T02:05:09;22.65;;;11.70;;
3941;SDS011;1985;48.592;8.850;2023-05-23T02:07:35;28.30;;;11.90;;
3941;SDS011;1985;48.592;8.850;2023-05-23T02:10:02;22.95;;;10.80;;
3941;SDS011;1985;48.592;8.850;2023-05-23T02:12:28;20.98;;;10.10;;
3941;SDS011;1985;48.592;8.850;2023-05-23T02:14:54;25.63;;;12.00;;
3941;SDS011;1985;48.592;8.850;2023-05-23T02:17:20;21.90;;;11.00;;
3941;SDS011;1985;48.592;8.850;2023-05-23T02:19:48;21.10;;;10.77;;
3941;SDS011;1985;48.592;8.850;2023-05-23T02:22:14;25.70;;;11.95;;
3941;SDS011;1985;48.592;8.850;2023-05-23T02:24:40;22.40;;;11.80;;
3941;SDS011;1985;48.592;8.850;2023-05-23T02:27:06;22.40;;;11.37;;
3941;SDS011;1985;48.592;8.850;2023-05-23T02:29:32;22.02;;;9.82;;
3941;SDS011;1985;48.592;8.850;2023-05-23T02:31:58;25.57;;;12.17;;
3941;SDS011;1985;48.592;8.850;2023-05-23T02:34:23;24.70;;;12.23;;
3941;SDS011;1985;48.592;8.850;2023-05-23T02:36:49;19.23;;;9.93;;
3941;SDS011;1985;48.592;8.850;2023-05-23T02:39:15;22.05;;;10.40;;
3941;SDS011;1985;48.592;8.850;2023-05-23T02:41:41;22.30;;;11.13;;
3941;SDS011;1985;48.592;8.850;2023-05-23T02:44:07;23.90;;;11.90;;
3941;SDS011;1985;48.592;8.850;2023-05-23T02:46:33;24.07;;;12.10;;
3941;SDS011;1985;48.592;8.850;2023-05-23T02:48:58;22.53;;;11.73;;
3941;SDS011;1985;48.592;8.850;2023-05-23T02:51:24;27.95;;;12.05;;
3941;SDS011;1985;48.592;8.850;2023-05-23T02:53:50;27.10;;;14.07;;
3941;SDS011;1985;48.592;8.850;2023-05-23T02:56:15;24.87;;;12.83;;
3941;SDS011;1985;48.592;8.850;2023-05-23T02:58:41;23.38;;;11.40;;
3941;SDS011;1985;48.592;8.850;2023-05-23T03:01:07;26.63;;;12.43;;
3941;SDS011;1985;48.592;8.850;2023-05-23T03:03:33;27.97;;;13.60;;
3941;SDS011;1985;48.592;8.850;2023-05-23T03:05:58;24.48;;;11.60;;
3941;SDS011;1985;48.592;8.850;2023-05-23T03:08:24;25.73;;;12.35;;
3941;SDS011;1985;48.592;8.850;2023-05-23T03:10:50;24.20;;;11.65;;
3941;SDS011;1985;48.592;8.850;2023-05-23T03:13:16;26.43;;;12.57;;
3941;SDS011;1985;48.592;8.850;2023-05-23T03:15:42;24.50;;;12.90;;
3941;SDS011;1985;48.592;8.850;2023-05-23T03:18:08;23.33;;;11.63;;
3941;SDS011;1985;48.592;8.850;2023-05-23T03:20:34;28.83;;;14.65;;
3941;SDS011;1985;48.592;8.850;2023-05-23T03:22:59;25.90;;;14.00;;
3941;SDS011;1985;48.592;8.850;2023-05-23T03:25:25;30.13;;;16.67;;
3941;SDS011;1985;48.592;8.850;2023-05-23T03:27:51;37.80;;;19.25;;
3941;SDS011;1985;48.592;8.850;2023-05-23T03:30:16;49.65;;;22.95;;
3941;SDS011;1985;48.592;8.850;2023-05-23T03:32:42;22.03;;;12.00;;
3941;SDS011;1985;48.592;8.850;2023-05-23T03:35:08;25.20;;;12.77;;
3941;SDS011;1985;48.592;8.850;2023-05-23T03:37:34;23.20;;;12.35;;
3941;SDS011;1985;48.592;8.850;2023-05-23T03:39:59;23.63;;;10.70;;
3941;SDS011;1985;48.592;8.850;2023-05-23T03:42:26;24.55;;;12.07;;
3941;SDS011;1985;48.592;8.850;2023-05-23T03:44:52;25.30;;;11.05;;
3941;SDS011;1985;48.592;8.850;2023-05-23T03:47:18;20.35;;;10.75;;
3941;SDS011;1985;48.592;8.850;2023-05-23T03:49:43;23.05;;;12.13;;
3941;SDS011;1985;48.592;8.850;2023-05-23T03:52:09;25.00;;;11.77;;
3941;SDS011;1985;48.592;8.850;2023-05-23T03:54:35;26.50;;;12.68;;
3941;SDS011;1985;48.592;8.850;2023-05-23T03:57:01;27.23;;;12.60;;
3941;SDS011;1985;48.592;8.850;2023-05-23T03:59:27;27.40;;;12.65;;
3941;SDS011;1985;48.592;8.850;2023-05-23T04:01:52;28.07;;;13.20;;
3941;SDS011;1985;48.592;8.850;2023-05-23T04:04:19;23.65;;;12.35;;
3941;SDS011;1985;48.592;8.850;2023-05-23T04:06:45;31.70;;;13.45;;
3941;SDS011;1985;48.592;8.850;2023-05-23T04:09:11;23.13;;;11.77;;
3941;SDS011;1985;48.592;8.850;2023-05-23T04:11:38;30.65;;;14.48;;
3941;SDS011;1985;48.592;8.850;2023-05-23T04:14:03;25.17;;;13.10;;
3941;SDS011;1985;48.592;8.850;2023-05-23T04:16:29;27.35;;;12.75;;
3941;SDS011;1985;48.592;8.850;2023-05-23T04:18:58;27.42;;;13.20;;
3941;SDS011;1985;48.592;8.850;2023-05-23T04:21:24;25.15;;;12.65;;
3941;SDS011;1985;48.592;8.850;2023-05-23T04:23:50;32.70;;;16.23;;
3941;SDS011;1985;48.592;8.850;2023-05-23T04:26:15;32.40;;;17.15;;
3941;SDS011;1985;48.592;8.850;2023-05-23T04:28:42;42.05;;;20.60;;
3941;SDS011;1985;48.592;8.850;2023-05-23T04:31:10;39.85;;;21.20;;
3941;SDS011;1985;48.592;8.850;2023-05-23T04:33:36;67.53;;;36.60;;
3941;SDS011;1985;48.592;8.850;2023-05-23T04:36:02;62.00;;;29.50;;
3941;SDS011;1985;48.592;8.850;2023-05-23T04:38:28;59.30;;;29.20;;
3941;SDS011;1985;48.592;8.850;2023-05-23T04:40:54;60.95;;;33.33;;
3941;SDS011;1985;48.592;8.850;2023-05-23T04:43:21;72.32;;;36.45;;
3941;SDS011;1985;48.592;8.850;2023-05-23T04:45:50;68.18;;;33.03;;
3941;SDS011;1985;48.592;8.850;2023-05-23T04:48:18;66.30;;;34.42;;
3941;SDS011;1985;48.592;8.850;2023-05-23T04:50:45;65.22;;;31.33;;
3941;SDS011;1985;48.592;8.850;2023-05-23T04:53:12;60.57;;;32.40;;
3941;SDS011;1985;48.592;8.850;2023-05-23T04:55:37;66.78;;;33.33;;
3941;SDS011;1985;48.592;8.850;2023-05-23T04:58:03;60.30;;;31.10;;
3941;SDS011;1985;48.592;8.850;2023-05-23T05:00:28;59.17;;;32.10;;
3941;SDS011;1985;48.592;8.850;2023-05-23T05:02:54;62.58;;;31.90;;
3941;SDS011;1985;48.592;8.850;2023-05-23T05:05:20;62.55;;;32.40;;
3941;SDS011;1985;48.592;8.850;2023-05-23T05:07:45;66.63;;;33.40;;
3941;SDS011;1985;48.592;8.850;2023-05-23T05:10:11;60.40;;;33.13;;
3941;SDS011;1985;48.592;8.850;2023-05-23T05:12:43;62.85;;;34.35;;
3941;SDS011;1985;48.592;8.850;2023-05-23T05:15:11;60.22;;;33.83;;
3941;SDS011;1985;48.592;8.850;2023-05-23T05:17:37;56.40;;;31.42;;
3941;SDS011;1985;48.592;8.850;2023-05-23T05:20:03;61.97;;;35.87;;
3941;SDS011;1985;48.592;8.850;2023-05-23T05:22:36;55.97;;;33.08;;
3941;SDS011;1985;48.592;8.850;2023-05-23T05:25:04;60.65;;;36.08;;
3941;SDS011;1985;48.592;8.850;2023-05-23T05:27:31;60.77;;;36.47;;
3941;SDS011;1985;48.592;8.850;2023-05-23T05:29:57;57.97;;;32.30;;
3941;SDS011;1985;48.592;8.850;2023-05-23T05:32:28;63.38;;;38.28;;
3941;SDS011;1985;48.592;8.850;2023-05-23T05:34:55;56.78;;;36.65;;
3941;SDS011;1985;48.592;8.850;2023-05-23T05:37:21;61.60;;;35.80;;
3941;SDS011;1985;48.592;8.850;2023-05-23T05:39:46;57.55;;;35.15;;
3941;SDS011;1985;48.592;8.850;2023-05-23T05:42:12;71.73;;;38.10;;
3941;SDS011;1985;48.592;8.850;2023-05-23T05:44:38;70.40;;;37.40;;
3941;SDS011;1985;48.592;8.850;2023-05-23T05:47:04;66.95;;;37.15;;
3941;SDS011;1985;48.592;8.850;2023-05-23T05:49:29;61.17;;;35.80;;
3941;SDS011;1985;48.592;8.850;2023-05-23T05:51:55;62.50;;;36.95;;
3941;SDS011;1985;48.592;8.850;2023-05-23T05:54:21;63.17;;;37.85;;
3941;SDS011;1985;48.592;8.850;2023-05-23T05:56:46;62.67;;;35.67;;
3941;SDS011;1985;48.592;8.850;2023-05-23T05:59:12;58.30;;;34.33;;
3941;SDS011;1985;48.592;8.850;2023-05-23T06:01:37;58.27;;;35.20;;
3941;SDS011;1985;48.592;8.850;2023-05-23T06:04:03;57.13;;;33.25;;
3941;SDS011;1985;48.592;8.850;2023-05-23T06:06:29;57.45;;;34.75;;
3941;SDS011;1985;48.592;8.850;2023-05-23T06:08:55;56.58;;;33.83;;
3941;SDS011;1985;48.592;8.850;2023-05-23T06:11:21;61.37;;;35.40;;
3941;SDS011;1985;48.592;8.850;2023-05-23T06:13:46;61.33;;;32.63;;
3941;SDS011;1985;48.592;8.850;2023-05-23T06:16:12;57.00;;;32.08;;
3941;SDS011;1985;48.592;8.850;2023-05-23T06:18:39;55.95;;;32.50;;
3941;SDS011;1985;48.592;8.850;2023-05-23T06:21:05;54.70;;;31.30;;
3941;SDS011;1985;48.592;8.850;2023-05-23T06:23:30;53.53;;;30.48;;
3941;SDS011;1985;48.592;8.850;2023-05-23T06:25:57;61.83;;;36.58;;
3941;SDS011;1985;48.592;8.850;2023-05-23T06:28:23;60.33;;;34.40;;
3941;SDS011;1985;48.592;8.850;2023-05-23T06:30:49;57.10;;;33.43;;
3941;SDS011;1985;48.592;8.850;2023-05-23T06:33:15;58.05;;;33.78;;
3941;SDS011;1985;48.592;8.850;2023-05-23T06:35:41;57.38;;;33.83;;
3941;SDS011;1985;48.592;8.850;2023-05-23T06:38:07;56.88;;;34.70;;
3941;SDS011;1985;48.592;8.850;2023-05-23T06:40:32;53.28;;;32.92;;
3941;SDS011;1985;48.592;8.850;2023-05-23T06:42:58;54.90;;;32.90;;
3941;SDS011;1985;48.592;8.850;2023-05-23T06:45:24;51.72;;;31.73;;
3941;SDS011;1985;48.592;8.850;2023-05-23T06:47:49;61.10;;;32.85;;
3941;SDS011;1985;48.592;8.850;2023-05-23T06:50:16;54.20;;;31.50;;
3941;SDS011;1985;48.592;8.850;2023-05-23T06:52:43;56.25;;;32.22;;
3941;SDS011;1985;48.592;8.850;2023-05-23T06:55:10;55.05;;;33.17;;
3941;SDS011;1985;48.592;8.850;2023-05-23T06:57:42;57.20;;;31.53;;
3941;SDS011;1985;48.592;8.850;2023-05-23T07:00:08;57.42;;;32.60;;
3941;SDS011;1985;48.592;8.850;2023-05-23T07:02:35;56.05;;;34.00;;
3941;SDS011;1985;48.592;8.850;2023-05-23T07:05:01;49.93;;;30.57;;
3941;SDS011;1985;48.592;8.850;2023-05-23T07:07:26;51.23;;;29.90;;
3941;SDS011;1985;48.592;8.850;2023-05-23T07:09:52;60.55;;;31.40;;
3941;SDS011;1985;48.592;8.850;2023-05-23T07:12:17;46.25;;;29.80;;
3941;SDS011;1985;48.592;8.850;2023-05-23T07:14:43;48.83;;;29.90;;
3941;SDS011;1985;48.592;8.850;2023-05-23T07:17:09;51.10;;;31.07;;
3941;SDS011;1985;48.592;8.850;2023-05-23T07:19:34;51.10;;;28.70;;
3941;SDS011;1985;48.592;8.850;2023-05-23T07:22:00;45.57;;;27.67;;
3941;SDS011;1985;48.592;8.850;2023-05-23T07:24:25;48.60;;;29.30;;
3941;SDS011;1985;48.592;8.850;2023-05-23T07:26:51;48.25;;;29.02;;
3941;SDS011;1985;48.592;8.850;2023-05-23T07:29:17;51.83;;;28.40;;
3941;SDS011;1985;48.592;8.850;2023-05-23T07:31:42;43.17;;;27.60;;
3941;SDS011;1985;48.592;8.850;2023-05-23T07:34:08;42.00;;;26.50;;
3941;SDS011;1985;48.592;8.850;2023-05-23T07:36:33;44.20;;;26.40;;
3941;SDS011;1985;48.592;8.850;2023-05-23T07:39:01;44.53;;;27.45;;
3941;SDS011;1985;48.592;8.850;2023-05-23T07:41:27;43.22;;;26.80;;
3941;SDS011;1985;48.592;8.850;2023-05-23T07:43:53;45.97;;;27.53;;
3941;SDS011;1985;48.592;8.850;2023-05-23T07:46:19;40.87;;;26.10;;
3941;SDS011;1985;48.592;8.850;2023-05-23T07:48:46;42.08;;;26.00;;
3941;SDS011;1985;48.592;8.850;2023-05-23T07:51:12;47.60;;;26.45;;
3941;SDS011;1985;48.592;8.850;2023-05-23T07:53:37;46.70;;;26.83;;
3941;SDS011;1985;48.592;8.850;2023-05-23T07:56:04;47.53;;;26.77;;
3941;SDS011;1985;48.592;8.850;2023-05-23T07:58:30;41.83;;;25.95;;
3941;SDS011;1985;48.592;8.850;2023-05-23T08:00:56;42.50;;;26.47;;
3941;SDS011;1985;48.592;8.850;2023-05-23T08:03:22;41.17;;;25.20;;
3941;SDS011;1985;48.592;8.850;2023-05-23T08:05:48;44.17;;;25.08;;
3941;SDS011;1985;48.592;8.850;2023-05-23T08:08:14;39.97;;;24.67;;
3941;SDS011;1985;48.592;8.850;2023-05-23T08:10:40;41.78;;;25.52;;
3941;SDS011;1985;48.592;8.850;2023-05-23T08:13:08;42.65;;;24.10;;
3941;SDS011;1985;48.592;8.850;2023-05-23T08:15:34;39.22;;;23.83;;
3941;SDS011;1985;48.592;8.850;2023-05-23T08:17:59;33.90;;;21.40;;
3941;SDS011;1985;48.592;8.850;2023-05-23T08:20:25;36.57;;;21.53;;
3941;SDS011;1985;48.592;8.850;2023-05-23T08:22:58;35.30;;;21.80;;
3941;SDS011;1985;48.592;8.850;2023-05-23T08:25:24;34.80;;;21.17;;
3941;SDS011;1985;48.592;8.850;2023-05-23T08:27:54;37.17;;;21.35;;
3941;SDS011;1985;48.592;8.850;2023-05-23T08:30:21;34.33;;;20.75;;
3941;SDS011;1985;48.592;8.850;2023-05-23T08:32:47;32.67;;;19.47;;
3941;SDS011;1985;48.592;8.850;2023-05-23T08:35:13;36.90;;;18.92;;
3941;SDS011;1985;48.592;8.850;2023-05-23T08:37:38;34.35;;;18.40;;
3941;SDS011;1985;48.592;8.850;2023-05-23T08:40:05;29.90;;;16.83;;
3941;SDS011;1985;48.592;8.850;2023-05-23T08:42:37;26.13;;;14.82;;
3941;SDS011;1985;48.592;8.850;2023-05-23T08:45:03;28.33;;;15.23;;
3941;SDS011;1985;48.592;8.850;2023-05-23T08:47:29;27.47;;;15.40;;
3941;SDS011;1985;48.592;8.850;2023-05-23T08:50:01;27.17;;;14.45;;
3941;SDS011;1985;48.592;8.850;2023-05-23T08:52:30;24.52;;;14.55;;
3941;SDS011;1985;48.592;8.850;2023-05-23T08:55:02;25.90;;;14.87;;
3941;SDS011;1985;48.592;8.850;2023-05-23T08:57:28;25.10;;;13.98;;
3941;SDS011;1985;48.592;8.850;2023-05-23T08:59:55;25.00;;;13.48;;
3941;SDS011;1985;48.592;8.850;2023-05-23T09:02:21;27.65;;;14.05;;
3941;SDS011;1985;48.592;8.850;2023-05-23T09:04:48;27.63;;;13.50;;
3941;SDS011;1985;48.592;8.850;2023-05-23T09:07:14;24.65;;;13.60;;
3941;SDS011;1985;48.592;8.850;2023-05-23T09:09:41;22.63;;;12.48;;
3941;SDS011;1985;48.592;8.850;2023-05-23T09:12:07;25.00;;;13.53;;
3941;SDS011;1985;48.592;8.850;2023-05-23T09:14:34;26.27;;;14.40;;
3941;SDS011;1985;48.592;8.850;2023-05-23T09:17:01;25.85;;;13.10;;
3941;SDS011;1985;48.592;8.850;2023-05-23T09:19:27;25.55;;;14.15;;
3941;SDS011;1985;48.592;8.850;2023-05-23T09:21:53;28.10;;;15.53;;
3941;SDS011;1985;48.592;8.850;2023-05-23T09:24:19;26.25;;;14.75;;
3941;SDS011;1985;48.592;8.850;2023-05-23T09:26:45;28.65;;;13.68;;
3941;SDS011;1985;48.592;8.850;2023-05-23T09:29:12;25.35;;;13.10;;
3941;SDS011;1985;48.592;8.850;2023-05-23T09:31:38;28.25;;;13.32;;
3941;SDS011;1985;48.592;8.850;2023-05-23T09:34:03;24.60;;;13.65;;
3941;SDS011;1985;48.592;8.850;2023-05-23T09:36:31;22.63;;;12.37;;
3941;SDS011;1985;48.592;8.850;2023-05-23T09:39:01;22.50;;;12.25;;
3941;SDS011;1985;48.592;8.850;2023-05-23T09:41:32;23.45;;;11.85;;
3941;SDS011;1985;48.592;8.850;2023-05-23T09:43:59;22.58;;;11.82;;
3941;SDS011;1985;48.592;8.850;2023-05-23T09:46:34;23.17;;;11.82;;
3941;SDS011;1985;48.592;8.850;2023-05-23T09:49:01;21.02;;;11.80;;
3941;SDS011;1985;48.592;8.850;2023-05-23T09:51:27;23.03;;;12.83;;
3941;SDS011;1985;48.592;8.850;2023-05-23T09:53:53;23.23;;;12.40;;
3941;SDS011;1985;48.592;8.850;2023-05-23T09:56:20;21.70;;;12.35;;
3941;SDS011;1985;48.592;8.850;2023-05-23T09:58:50;20.40;;;11.20;;
3941;SDS011;1985;48.592;8.850;2023-05-23T10:01:18;25.08;;;11.98;;
3941;SDS011;1985;48.592;8.850;2023-05-23T10:09:03;22.48;;;11.95;;
3941;SDS011;1985;48.592;8.850;2023-05-23T10:13:59;20.48;;;11.10;;
3941;SDS011;1985;48.592;8.850;2023-05-23T10:16:33;21.58;;;11.15;;
3941;SDS011;1985;48.592;8.850;2023-05-23T10:19:09;23.58;;;11.60;;
3941;SDS011;1985;48.592;8.850;2023-05-23T10:21:47;20.38;;;10.30;;
3941;SDS011;1985;48.592;8.850;2023-05-23T10:24:18;22.13;;;10.77;;
3941;SDS011;1985;48.592;8.850;2023-05-23T10:26:45;21.48;;;11.05;;
3941;SDS011;1985;48.592;8.850;2023-05-23T10:29:12;20.67;;;10.50;;
3941;SDS011;1985;48.592;8.850;2023-05-23T10:31:37;22.55;;;9.93;;
3941;SDS011;1985;48.592;8.850;2023-05-23T10:34:13;20.97;;;10.10;;
3941;SDS011;1985;48.592;8.850;2023-05-23T10:36:42;19.40;;;9.63;;
3941;SDS011;1985;48.592;8.850;2023-05-23T10:42:14;17.45;;;9.10;;
3941;SDS011;1985;48.592;8.850;2023-05-23T10:44:44;19.13;;;9.03;;
3941;SDS011;1985;48.592;8.850;2023-05-23T10:47:09;18.13;;;8.80;;
3941;SDS011;1985;48.592;8.850;2023-05-23T10:49:37;19.05;;;9.20;;
3941;SDS011;1985;48.592;8.850;2023-05-23T10:52:10;20.05;;;9.95;;
3941;SDS011;1985;48.592;8.850;2023-05-23T10:54:45;21.83;;;10.05;;
3941;SDS011;1985;48.592;8.850;2023-05-23T10:57:16;18.70;;;10.07;;
3941;SDS011;1985;48.592;8.850;2023-05-23T10:59:46;18.55;;;9.32;;
3941;SDS011;1985;48.592;8.850;2023-05-23T11:02:15;18.10;;;9.80;;
3941;SDS011;1985;48.592;8.850;2023-05-23T11:04:43;19.77;;;9.68;;
3941;SDS011;1985;48.592;8.850;2023-05-23T11:07:28;18.40;;;9.52;;
3941;SDS011;1985;48.592;8.850;2023-05-23T11:12:36;17.75;;;9.35;;
3941;SDS011;1985;48.592;8.850;2023-05-23T11:17:47;18.60;;;9.57;;
3941;SDS011;1985;48.592;8.850;2023-05-23T11:20:18;21.95;;;9.90;;
3941;SDS011;1985;48.592;8.850;2023-05-23T11:23:00;19.90;;;8.93;;
3941;SDS011;1985;48.592;8.850;2023-05-23T11:26:10;19.20;;;8.57;;
3941;SDS011;1985;48.592;8.850;2023-05-23T11:28:17;17.10;;;8.43;;
3941;SDS011;1985;48.592;8.850;2023-05-23T11:30:46;20.38;;;9.73;;
3941;SDS011;1985;48.592;8.850;2023-05-23T11:33:13;18.05;;;8.70;;
3941;SDS011;1985;48.592;8.850;2023-05-23T11:35:48;17.30;;;8.50;;
3941;SDS011;1985;48.592;8.850;2023-05-23T11:38:15;20.13;;;8.68;;
3941;SDS011;1985;48.592;8.850;2023-05-23T11:40:43;16.38;;;7.78;;
3941;SDS011;1985;48.592;8.850;2023-05-23T11:43:13;17.63;;;8.38;;
3941;SDS011;1985;48.592;8.850;2023-05-23T11:45:40;18.77;;;8.30;;
3941;SDS011;1985;48.592;8.850;2023-05-23T11:50:46;19.30;;;8.60;;
3941;SDS011;1985;48.592;8.850;2023-05-23T11:53:13;15.50;;;6.97;;
3941;SDS011;1985;48.592;8.850;2023-05-23T11:55:47;17.52;;;7.90;;
3941;SDS011;1985;48.592;8.850;2023-05-23T11:58:19;16.23;;;8.48;;
3941;SDS011;1985;48.592;8.850;2023-05-23T12:00:46;17.98;;;8.88;;
3941;SDS011;1985;48.592;8.850;2023-05-23T12:03:11;15.77;;;7.70;;
3941;SDS011;1985;48.592;8.850;2023-05-23T12:05:37;16.43;;;7.43;;
3941;SDS011;1985;48.592;8.850;2023-05-23T12:08:03;16.30;;;7.35;;
3941;SDS011;1985;48.592;8.850;2023-05-23T12:10:28;16.83;;;7.32;;
3941;SDS011;1985;48.592;8.850;2023-05-23T12:12:54;15.93;;;7.60;;
3941;SDS011;1985;48.592;8.850;2023-05-23T12:15:23;14.68;;;6.57;;
3941;SDS011;1985;48.592;8.850;2023-05-23T12:17:52;15.50;;;6.88;;
3941;SDS011;1985;48.592;8.850;2023-05-23T12:20:18;15.50;;;7.25;;
3941;SDS011;1985;48.592;8.850;2023-05-23T12:22:45;15.82;;;6.93;;
3941;SDS011;1985;48.592;8.850;2023-05-23T12:25:11;15.80;;;6.85;;
3941;SDS011;1985;48.592;8.850;2023-05-23T12:27:39;14.33;;;5.70;;
3941;SDS011;1985;48.592;8.850;2023-05-23T12:32:33;16.17;;;5.90;;
3941;SDS011;1985;48.592;8.850;2023-05-23T12:35:02;14.35;;;6.15;;
3941;SDS011;1985;48.592;8.850;2023-05-23T12:37:28;14.77;;;5.40;;
3941;SDS011;1985;48.592;8.850;2023-05-23T12:39:54;14.00;;;5.32;;
3941;SDS011;1985;48.592;8.850;2023-05-23T12:42:19;13.02;;;5.00;;
3941;SDS011;1985;48.592;8.850;2023-05-23T12:44:45;15.23;;;4.70;;
3941;SDS011;1985;48.592;8.850;2023-05-23T12:47:15;11.98;;;4.90;;
3941;SDS011;1985;48.592;8.850;2023-05-23T12:49:41;10.17;;;3.90;;
3941;SDS011;1985;48.592;8.850;2023-05-23T12:52:08;11.43;;;4.35;;
3941;SDS011;1985;48.592;8.850;2023-05-23T12:54:34;10.23;;;4.00;;
3941;SDS011;1985;48.592;8.850;2023-05-23T12:57:00;16.52;;;3.90;;
3941;SDS011;1985;48.592;8.850;2023-05-23T12:59:26;12.52;;;4.60;;
3941;SDS011;1985;48.592;8.850;2023-05-23T13:01:51;10.13;;;3.53;;
3941;SDS011;1985;48.592;8.850;2023-05-23T13:04:18;10.90;;;3.70;;
3941;SDS011;1985;48.592;8.850;2023-05-23T13:06:43;10.13;;;3.50;;
3941;SDS011;1985;48.592;8.850;2023-05-23T13:09:09;11.65;;;4.00;;
3941;SDS011;1985;48.592;8.850;2023-05-23T13:11:35;12.03;;;3.50;;
3941;SDS011;1985;48.592;8.850;2023-05-23T13:14:01;11.20;;;4.03;;
3941;SDS011;1985;48.592;8.850;2023-05-23T13:16:27;11.15;;;3.70;;
3941;SDS011;1985;48.592;8.850;2023-05-23T13:18:53;10.33;;;3.60;;
3941;SDS011;1985;48.592;8.850;2023-05-23T13:21:18;10.30;;;3.40;;
3941;SDS011;1985;48.592;8.850;2023-05-23T13:23:44;10.43;;;3.67;;
3941;SDS011;1985;48.592;8.850;2023-05-23T13:26:10;9.90;;;2.90;;
3941;SDS011;1985;48.592;8.850;2023-05-23T13:28:36;9.60;;;3.35;;
3941;SDS011;1985;48.592;8.850;2023-05-23T13:31:01;10.67;;;3.03;;
3941;SDS011;1985;48.592;8.850;2023-05-23T13:33:27;10.13;;;3.40;;
3941;SDS011;1985;48.592;8.850;2023-05-23T13:35:53;11.35;;;3.55;;
3941;SDS011;1985;48.592;8.850;2023-05-23T13:38:19;11.60;;;3.40;;
3941;SDS011;1985;48.592;8.850;2023-05-23T13:40:45;10.23;;;3.05;;
3941;SDS011;1985;48.592;8.850;2023-05-23T13:43:11;12.00;;;3.50;;
3941;SDS011;1985;48.592;8.850;2023-05-23T13:45:37;9.93;;;3.20;;
3941;SDS011;1985;48.592;8.850;2023-05-23T13:48:03;13.30;;;3.40;;
3941;SDS011;1985;48.592;8.850;2023-05-23T13:50:28;10.30;;;3.60;;
3941;SDS011;1985;48.592;8.850;2023-05-23T13:52:54;11.60;;;3.40;;
3941;SDS011;1985;48.592;8.850;2023-05-23T13:55:20;10.10;;;3.30;;
3941;SDS011;1985;48.592;8.850;2023-05-23T13:57:46;10.80;;;3.30;;
3941;SDS011;1985;48.592;8.850;2023-05-23T14:00:12;11.57;;;3.67;;
3941;SDS011;1985;48.592;8.850;2023-05-23T14:02:38;10.02;;;3.20;;
3941;SDS011;1985;48.592;8.850;2023-05-23T14:05:04;10.30;;;3.50;;
3941;SDS011;1985;48.592;8.850;2023-05-23T14:07:31;11.15;;;4.10;;
3941;SDS011;1985;48.592;8.850;2023-05-23T14:09:56;10.00;;;3.30;;
3941;SDS011;1985;48.592;8.850;2023-05-23T14:12:23;10.50;;;3.67;;
3941;SDS011;1985;48.592;8.850;2023-05-23T14:14:50;11.73;;;4.10;;
3941;SDS011;1985;48.592;8.850;2023-05-23T14:17:15;10.77;;;3.50;;
3941;SDS011;1985;48.592;8.850;2023-05-23T14:19:41;10.77;;;3.90;;
3941;SDS011;1985;48.592;8.850;2023-05-23T14:22:07;10.10;;;3.30;;
3941;SDS011;1985;48.592;8.850;2023-05-23T14:24:33;10.87;;;3.50;;
3941;SDS011;1985;48.592;8.850;2023-05-23T14:26:58;9.93;;;3.20;;
3941;SDS011;1985;48.592;8.850;2023-05-23T14:29:24;11.05;;;3.70;;
3941;SDS011;1985;48.592;8.850;2023-05-23T14:31:50;11.03;;;3.57;;
3941;SDS011;1985;48.592;8.850;2023-05-23T14:34:15;10.97;;;3.23;;
3941;SDS011;1985;48.592;8.850;2023-05-23T14:36:41;11.90;;;3.70;;
3941;SDS011;1985;48.592;8.850;2023-05-23T14:39:07;12.80;;;3.15;;
3941;SDS011;1985;48.592;8.850;2023-05-23T14:41:33;10.68;;;3.55;;
3941;SDS011;1985;48.592;8.850;2023-05-23T14:43:59;11.00;;;3.10;;
3941;SDS011;1985;48.592;8.850;2023-05-23T14:46:25;10.03;;;3.40;;
3941;SDS011;1985;48.592;8.850;2023-05-23T14:48:50;10.13;;;3.53;;
3941;SDS011;1985;48.592;8.850;2023-05-23T14:51:16;10.05;;;3.10;;
3941;SDS011;1985;48.592;8.850;2023-05-23T14:53:41;10.50;;;3.22;;
3941;SDS011;1985;48.592;8.850;2023-05-23T14:56:07;11.40;;;3.50;;
3941;SDS011;1985;48.592;8.850;2023-05-23T14:58:33;10.50;;;3.40;;
3941;SDS011;1985;48.592;8.850;2023-05-23T15:00:58;12.20;;;3.20;;
3941;SDS011;1985;48.592;8.850;2023-05-23T15:03:24;11.18;;;2.97;;
3941;SDS011;1985;48.592;8.850;2023-05-23T15:05:50;10.63;;;3.40;;
3941;SDS011;1985;48.592;8.850;2023-05-23T15:08:16;10.90;;;3.50;;
3941;SDS011;1985;48.592;8.850;2023-05-23T15:10:43;10.57;;;2.90;;
3941;SDS011;1985;48.592;8.850;2023-05-23T15:13:09;10.23;;;3.30;;
3941;SDS011;1985;48.592;8.850;2023-05-23T15:15:35;11.52;;;3.50;;
3941;SDS011;1985;48.592;8.850;2023-05-23T15:18:05;12.60;;;3.40;;
3941;SDS011;1985;48.592;8.850;2023-05-23T15:20:33;10.97;;;3.73;;